sensor_id;sensor_type;location;lat;lon;timestamp;temperature;humidity
35491;DHT22;21605;52.068;20.806;2022-11-04T00:01:15;6.50;99.90
35491;DHT22;21605;52.068;20.806;2022-11-04T00:03:41;6.60;99.90
35491;DHT22;21605;52.068;20.806;2022-11-04T00:06:06;6.60;99.90
35491;DHT22;21605;52.068;20.806;2022-11-04T00:08:32;6.60;99.90
35491;DHT22;21605;52.068;20.806;2022-11-04T00:10:58;6.50;99.90
35491;DHT22;21605;52.068;20.806;2022-11-04T00:13:42;6.60;99.90
35491;DHT22;21605;52.068;20.806;2022-11-04T00:16:08;6.50;99.90
35491;DHT22;21605;52.068;20.806;2022-11-04T00:18:52;6.60;99.90
35491;DHT22;21605;52.068;20.806;2022-11-04T00:21:18;6.60;99.90
35491;DHT22;21605;52.068;20.806;2022-11-04T00:24:02;6.60;99.90
35491;DHT22;21605;52.068;20.806;2022-11-04T00:26:46;6.60;99.90
35491;DHT22;21605;52.068;20.806;2022-11-04T00:29:30;6.60;99.90
35491;DHT22;21605;52.068;20.806;2022-11-04T00:31:56;6.60;99.90
35491;DHT22;21605;52.068;20.806;2022-11-04T00:34:40;6.70;99.90
35491;DHT22;21605;52.068;20.806;2022-11-04T00:37:05;6.70;99.90
35491;DHT22;21605;52.068;20.806;2022-11-04T00:39:31;6.70;99.90
35491;DHT22;21605;52.068;20.806;2022-11-04T00:41:56;6.70;99.90
35491;DHT22;21605;52.068;20.806;2022-11-04T00:44:22;6.80;99.90
35491;DHT22;21605;52.068;20.806;2022-11-04T00:46:47;6.80;99.90
35491;DHT22;21605;52.068;20.806;2022-11-04T00:49:12;7.00;99.90
35491;DHT22;21605;52.068;20.806;2022-11-04T00:51:38;6.90;99.90
35491;DHT22;21605;52.068;20.806;2022-11-04T00:54:04;7.00;99.90
35491;DHT22;21605;52.068;20.806;2022-11-04T00:56:30;7.00;99.90
35491;DHT22;21605;52.068;20.806;2022-11-04T00:58:57;7.00;99.90
35491;DHT22;21605;52.068;20.806;2022-11-04T01:01:23;7.10;99.90
35491;DHT22;21605;52.068;20.806;2022-11-04T01:03:49;7.20;99.90
35491;DHT22;21605;52.068;20.806;2022-11-04T01:06:16;7.20;99.90
35491;DHT22;21605;52.068;20.806;2022-11-04T01:08:41;7.20;99.90
35491;DHT22;21605;52.068;20.806;2022-11-04T01:11:07;7.20;99.90
35491;DHT22;21605;52.068;20.806;2022-11-04T01:13:33;7.10;99.90
35491;DHT22;21605;52.068;20.806;2022-11-04T01:15:59;7.30;99.90
35491;DHT22;21605;52.068;20.806;2022-11-04T01:18:25;7.30;99.90
35491;DHT22;21605;52.068;20.806;2022-11-04T01:20:51;7.40;99.90
35491;DHT22;21605;52.068;20.806;2022-11-04T01:23:16;7.40;99.90
35491;DHT22;21605;52.068;20.806;2022-11-04T01:25:42;7.40;99.90
35491;DHT22;21605;52.068;20.806;2022-11-04T01:28:07;7.50;99.90
35491;DHT22;21605;52.068;20.806;2022-11-04T01:30:33;7.40;99.90
35491;DHT22;21605;52.068;20.806;2022-11-04T01:32:59;7.50;99.90
35491;DHT22;21605;52.068;20.806;2022-11-04T01:35:24;7.50;99.90
35491;DHT22;21605;52.068;20.806;2022-11-04T01:37:50;7.50;99.90
35491;DHT22;21605;52.068;20.806;2022-11-04T01:40:15;7.60;99.90
35491;DHT22;21605;52.068;20.806;2022-11-04T01:42:40;7.50;99.90
35491;DHT22;21605;52.068;20.806;2022-11-04T01:50:19;7.50;99.90
35491;DHT22;21605;52.068;20.806;2022-11-04T01:55:23;7.60;99.90
35491;DHT22;21605;52.068;20.806;2022-11-04T01:57:50;7.60;99.90
35491;DHT22;21605;52.068;20.806;2022-11-04T02:00:17;7.60;99.90
35491;DHT22;21605;52.068;20.806;2022-11-04T02:02:48;7.60;99.90
35491;DHT22;21605;52.068;20.806;2022-11-04T02:05:15;7.60;99.90
35491;DHT22;21605;52.068;20.806;2022-11-04T02:07:40;7.60;99.90
35491;DHT22;21605;52.068;20.806;2022-11-04T02:10:06;7.60;99.90
35491;DHT22;21605;52.068;20.806;2022-11-04T02:12:32;7.60;99.90
35491;DHT22;21605;52.068;20.806;2022-11-04T02:31:11;7.50;99.90
35491;DHT22;21605;52.068;20.806;2022-11-04T02:33:39;7.50;99.90
35491;DHT22;21605;52.068;20.806;2022-11-04T02:41:47;7.50;99.90
35491;DHT22;21605;52.068;20.806;2022-11-04T02:44:23;7.50;99.90
35491;DHT22;21605;52.068;20.806;2022-11-04T02:46:52;7.50;99.90
35491;DHT22;21605;52.068;20.806;2022-11-04T02:52:03;7.50;99.90
35491;DHT22;21605;52.068;20.806;2022-11-04T02:54:32;7.50;99.90
35491;DHT22;21605;52.068;20.806;2022-11-04T02:56:59;7.60;99.90
35491;DHT22;21605;52.068;20.806;2022-11-04T02:59:32;7.60;99.90
35491;DHT22;21605;52.068;20.806;2022-11-04T03:02:00;7.60;99.90
35491;DHT22;21605;52.068;20.806;2022-11-04T03:04:28;7.60;99.90
35491;DHT22;21605;52.068;20.806;2022-11-04T03:06:56;7.60;99.90
35491;DHT22;21605;52.068;20.806;2022-11-04T03:09:22;7.60;99.90
35491;DHT22;21605;52.068;20.806;2022-11-04T03:11:49;7.60;99.90
35491;DHT22;21605;52.068;20.806;2022-11-04T03:14:29;7.60;99.90
35491;DHT22;21605;52.068;20.806;2022-11-04T03:16:57;7.60;99.90
35491;DHT22;21605;52.068;20.806;2022-11-04T03:19:37;7.60;99.90
35491;DHT22;21605;52.068;20.806;2022-11-04T03:22:06;7.70;99.90
35491;DHT22;21605;52.068;20.806;2022-11-04T03:24:34;7.60;99.90
35491;DHT22;21605;52.068;20.806;2022-11-04T03:27:01;7.70;99.90
35491;DHT22;21605;52.068;20.806;2022-11-04T03:29:32;7.60;99.90
35491;DHT22;21605;52.068;20.806;2022-11-04T03:34:28;7.60;99.90
35491;DHT22;21605;52.068;20.806;2022-11-04T03:36:54;7.60;99.90
35491;DHT22;21605;52.068;20.806;2022-11-04T03:39:20;7.70;99.90
35491;DHT22;21605;52.068;20.806;2022-11-04T03:41:47;7.70;99.90
35491;DHT22;21605;52.068;20.806;2022-11-04T03:44:13;7.70;99.90
35491;DHT22;21605;52.068;20.806;2022-11-04T03:46:39;7.80;99.90
35491;DHT22;21605;52.068;20.806;2022-11-04T03:49:04;7.80;99.90
35491;DHT22;21605;52.068;20.806;2022-11-04T03:51:30;7.80;99.90
35491;DHT22;21605;52.068;20.806;2022-11-04T03:53:56;7.80;99.90
35491;DHT22;21605;52.068;20.806;2022-11-04T04:04:10;7.90;99.90
35491;DHT22;21605;52.068;20.806;2022-11-04T04:06:33;7.90;99.90
35491;DHT22;21605;52.068;20.806;2022-11-04T04:11:54;8.00;99.90
35491;DHT22;21605;52.068;20.806;2022-11-04T04:14:23;8.00;99.90
35491;DHT22;21605;52.068;20.806;2022-11-04T04:19:30;8.00;99.90
35491;DHT22;21605;52.068;20.806;2022-11-04T04:21:58;7.90;99.90
35491;DHT22;21605;52.068;20.806;2022-11-04T04:24:25;7.90;99.90
35491;DHT22;21605;52.068;20.806;2022-11-04T04:27:10;7.90;99.90
35491;DHT22;21605;52.068;20.806;2022-11-04T04:29:54;8.00;99.90
35491;DHT22;21605;52.068;20.806;2022-11-04T04:32:20;7.90;99.90
35491;DHT22;21605;52.068;20.806;2022-11-04T04:34:47;8.00;99.90
35491;DHT22;21605;52.068;20.806;2022-11-04T04:37:19;8.00;99.90
35491;DHT22;21605;52.068;20.806;2022-11-04T04:39:52;7.90;99.90
35491;DHT22;21605;52.068;20.806;2022-11-04T04:42:37;7.90;99.90
35491;DHT22;21605;52.068;20.806;2022-11-04T04:47:47;8.00;99.90
35491;DHT22;21605;52.068;20.806;2022-11-04T04:50:13;8.10;99.90
35491;DHT22;21605;52.068;20.806;2022-11-04T04:52:40;8.10;99.90
35491;DHT22;21605;52.068;20.806;2022-11-04T04:55:06;8.10;99.90
35491;DHT22;21605;52.068;20.806;2022-11-04T04:57:32;8.10;99.90
35491;DHT22;21605;52.068;20.806;2022-11-04T04:59:58;8.10;99.90
35491;DHT22;21605;52.068;20.806;2022-11-04T05:02:23;8.10;99.90
35491;DHT22;21605;52.068;20.806;2022-11-04T05:04:49;8.00;99.90
35491;DHT22;21605;52.068;20.806;2022-11-04T05:07:14;8.00;99.90
35491;DHT22;21605;52.068;20.806;2022-11-04T05:09:40;8.00;99.90
35491;DHT22;21605;52.068;20.806;2022-11-04T05:12:05;8.10;99.90
35491;DHT22;21605;52.068;20.806;2022-11-04T05:14:31;8.10;99.90
35491;DHT22;21605;52.068;20.806;2022-11-04T05:16:57;8.00;99.90
35491;DHT22;21605;52.068;20.806;2022-11-04T05:19:22;8.00;99.90
35491;DHT22;21605;52.068;20.806;2022-11-04T05:21:48;8.00;99.90
35491;DHT22;21605;52.068;20.806;2022-11-04T05:24:13;7.90;99.90
35491;DHT22;21605;52.068;20.806;2022-11-04T05:26:39;7.90;99.90
35491;DHT22;21605;52.068;20.806;2022-11-04T05:29:04;7.90;99.90
35491;DHT22;21605;52.068;20.806;2022-11-04T05:31:30;8.00;99.90
35491;DHT22;21605;52.068;20.806;2022-11-04T05:33:55;8.00;99.90
35491;DHT22;21605;52.068;20.806;2022-11-04T05:36:23;7.90;99.90
35491;DHT22;21605;52.068;20.806;2022-11-04T05:38:49;7.90;99.90
35491;DHT22;21605;52.068;20.806;2022-11-04T05:41:14;7.80;99.90
35491;DHT22;21605;52.068;20.806;2022-11-04T05:43:53;7.90;99.90
35491;DHT22;21605;52.068;20.806;2022-11-04T05:46:19;7.90;99.90
35491;DHT22;21605;52.068;20.806;2022-11-04T05:48:44;8.00;99.90
35491;DHT22;21605;52.068;20.806;2022-11-04T05:51:20;7.90;99.90
35491;DHT22;21605;52.068;20.806;2022-11-04T05:53:46;8.00;99.90
35491;DHT22;21605;52.068;20.806;2022-11-04T05:56:11;7.90;99.90
35491;DHT22;21605;52.068;20.806;2022-11-04T05:58:37;8.00;99.90
35491;DHT22;21605;52.068;20.806;2022-11-04T06:03:46;8.10;99.90
35491;DHT22;21605;52.068;20.806;2022-11-04T06:06:12;8.10;99.90
35491;DHT22;21605;52.068;20.806;2022-11-04T06:08:37;8.00;99.90
35491;DHT22;21605;52.068;20.806;2022-11-04T06:11:02;8.10;99.90
35491;DHT22;21605;52.068;20.806;2022-11-04T06:13:29;8.10;99.90
35491;DHT22;21605;52.068;20.806;2022-11-04T06:15:55;8.10;99.90
35491;DHT22;21605;52.068;20.806;2022-11-04T06:18:20;8.10;99.90
35491;DHT22;21605;52.068;20.806;2022-11-04T06:20:46;8.10;99.90
35491;DHT22;21605;52.068;20.806;2022-11-04T06:23:11;8.10;99.90
35491;DHT22;21605;52.068;20.806;2022-11-04T06:25:37;8.10;99.90
35491;DHT22;21605;52.068;20.806;2022-11-04T06:28:02;8.10;99.90
35491;DHT22;21605;52.068;20.806;2022-11-04T06:30:28;8.10;99.90
35491;DHT22;21605;52.068;20.806;2022-11-04T06:32:53;8.20;99.90
35491;DHT22;21605;52.068;20.806;2022-11-04T06:35:19;8.20;99.90
35491;DHT22;21605;52.068;20.806;2022-11-04T06:37:44;8.20;99.90
35491;DHT22;21605;52.068;20.806;2022-11-04T06:40:10;8.30;99.90
35491;DHT22;21605;52.068;20.806;2022-11-04T06:42:35;8.30;99.90
35491;DHT22;21605;52.068;20.806;2022-11-04T06:45:01;8.30;99.90
35491;DHT22;21605;52.068;20.806;2022-11-04T06:47:26;8.40;99.90
35491;DHT22;21605;52.068;20.806;2022-11-04T06:49:52;8.40;99.90
35491;DHT22;21605;52.068;20.806;2022-11-04T06:52:17;8.40;99.90
35491;DHT22;21605;52.068;20.806;2022-11-04T06:54:43;8.40;99.90
35491;DHT22;21605;52.068;20.806;2022-11-04T06:57:09;8.50;99.90
35491;DHT22;21605;52.068;20.806;2022-11-04T06:59:35;8.50;99.90
35491;DHT22;21605;52.068;20.806;2022-11-04T07:02:01;8.50;99.90
35491;DHT22;21605;52.068;20.806;2022-11-04T07:04:26;8.60;99.90
35491;DHT22;21605;52.068;20.806;2022-11-04T07:06:52;8.60;99.90
35491;DHT22;21605;52.068;20.806;2022-11-04T07:09:18;8.60;99.90
35491;DHT22;21605;52.068;20.806;2022-11-04T07:11:44;8.70;99.90
35491;DHT22;21605;52.068;20.806;2022-11-04T07:14:09;8.70;99.90
35491;DHT22;21605;52.068;20.806;2022-11-04T07:16:35;8.70;99.90
35491;DHT22;21605;52.068;20.806;2022-11-04T07:19:01;8.80;99.90
35491;DHT22;21605;52.068;20.806;2022-11-04T07:21:26;8.80;99.90
35491;DHT22;21605;52.068;20.806;2022-11-04T07:23:52;8.90;99.90
35491;DHT22;21605;52.068;20.806;2022-11-04T07:26:18;8.90;99.90
35491;DHT22;21605;52.068;20.806;2022-11-04T07:28:43;8.90;99.90
35491;DHT22;21605;52.068;20.806;2022-11-04T07:31:10;8.90;99.90
35491;DHT22;21605;52.068;20.806;2022-11-04T07:33:36;8.90;99.90
35491;DHT22;21605;52.068;20.806;2022-11-04T07:36:02;8.90;99.90
35491;DHT22;21605;52.068;20.806;2022-11-04T07:38:29;9.00;99.90
35491;DHT22;21605;52.068;20.806;2022-11-04T07:40:56;9.00;99.90
35491;DHT22;21605;52.068;20.806;2022-11-04T07:43:21;9.10;99.90
35491;DHT22;21605;52.068;20.806;2022-11-04T07:45:47;9.10;99.90
35491;DHT22;21605;52.068;20.806;2022-11-04T07:48:22;9.10;99.90
35491;DHT22;21605;52.068;20.806;2022-11-04T07:50:48;9.00;99.90
35491;DHT22;21605;52.068;20.806;2022-11-04T07:53:13;9.10;99.90
35491;DHT22;21605;52.068;20.806;2022-11-04T07:55:39;9.10;99.90
35491;DHT22;21605;52.068;20.806;2022-11-04T07:58:05;9.00;99.90
35491;DHT22;21605;52.068;20.806;2022-11-04T08:00:30;9.10;99.90
35491;DHT22;21605;52.068;20.806;2022-11-04T08:02:56;9.00;99.90
35491;DHT22;21605;52.068;20.806;2022-11-04T08:05:21;9.00;99.90
35491;DHT22;21605;52.068;20.806;2022-11-04T08:07:47;9.00;99.90
35491;DHT22;21605;52.068;20.806;2022-11-04T08:10:13;9.10;99.90
35491;DHT22;21605;52.068;20.806;2022-11-04T08:12:38;9.10;99.90
35491;DHT22;21605;52.068;20.806;2022-11-04T08:15:04;9.00;99.90
35491;DHT22;21605;52.068;20.806;2022-11-04T08:17:30;9.10;99.90
35491;DHT22;21605;52.068;20.806;2022-11-04T08:19:55;9.10;99.90
35491;DHT22;21605;52.068;20.806;2022-11-04T08:22:21;9.10;99.90
35491;DHT22;21605;52.068;20.806;2022-11-04T08:24:46;9.10;99.90
35491;DHT22;21605;52.068;20.806;2022-11-04T08:27:12;9.10;99.90
35491;DHT22;21605;52.068;20.806;2022-11-04T08:29:38;9.10;99.90
35491;DHT22;21605;52.068;20.806;2022-11-04T08:32:03;9.10;99.90
35491;DHT22;21605;52.068;20.806;2022-11-04T08:34:29;9.10;99.90
35491;DHT22;21605;52.068;20.806;2022-11-04T08:36:55;9.20;99.90
35491;DHT22;21605;52.068;20.806;2022-11-04T08:39:22;9.20;99.90
35491;DHT22;21605;52.068;20.806;2022-11-04T08:41:47;9.20;99.90
35491;DHT22;21605;52.068;20.806;2022-11-04T08:44:15;9.20;99.90
35491;DHT22;21605;52.068;20.806;2022-11-04T08:46:41;9.20;99.90
35491;DHT22;21605;52.068;20.806;2022-11-04T08:49:07;9.20;99.90
35491;DHT22;21605;52.068;20.806;2022-11-04T08:51:33;9.30;99.90
35491;DHT22;21605;52.068;20.806;2022-11-04T08:53:59;9.30;99.90
35491;DHT22;21605;52.068;20.806;2022-11-04T08:56:26;9.30;99.90
35491;DHT22;21605;52.068;20.806;2022-11-04T08:58:52;9.40;99.90
35491;DHT22;21605;52.068;20.806;2022-11-04T09:01:18;9.40;99.90
35491;DHT22;21605;52.068;20.806;2022-11-04T09:03:45;9.50;99.90
35491;DHT22;21605;52.068;20.806;2022-11-04T09:06:12;9.60;99.90
35491;DHT22;21605;52.068;20.806;2022-11-04T09:08:38;9.60;99.90
35491;DHT22;21605;52.068;20.806;2022-11-04T09:11:07;9.70;99.90
35491;DHT22;21605;52.068;20.806;2022-11-04T09:13:33;9.70;99.90
35491;DHT22;21605;52.068;20.806;2022-11-04T09:15:58;9.80;99.90
35491;DHT22;21605;52.068;20.806;2022-11-04T09:18:24;9.80;99.90
35491;DHT22;21605;52.068;20.806;2022-11-04T09:20:49;9.90;99.90
35491;DHT22;21605;52.068;20.806;2022-11-04T09:23:15;10.00;99.90
35491;DHT22;21605;52.068;20.806;2022-11-04T09:25:40;10.10;99.90
35491;DHT22;21605;52.068;20.806;2022-11-04T09:28:06;10.20;99.90
35491;DHT22;21605;52.068;20.806;2022-11-04T09:30:31;10.20;99.90
35491;DHT22;21605;52.068;20.806;2022-11-04T09:32:57;10.30;99.90
35491;DHT22;21605;52.068;20.806;2022-11-04T09:35:22;10.40;99.90
35491;DHT22;21605;52.068;20.806;2022-11-04T09:37:48;10.40;99.90
35491;DHT22;21605;52.068;20.806;2022-11-04T09:40:18;10.50;99.90
35491;DHT22;21605;52.068;20.806;2022-11-04T09:45:14;10.70;99.90
35491;DHT22;21605;52.068;20.806;2022-11-04T09:47:42;10.80;99.90
35491;DHT22;21605;52.068;20.806;2022-11-04T09:50:09;10.90;99.90
35491;DHT22;21605;52.068;20.806;2022-11-04T09:52:43;11.00;99.90
35491;DHT22;21605;52.068;20.806;2022-11-04T09:57:39;11.20;99.90
35491;DHT22;21605;52.068;20.806;2022-11-04T10:00:04;11.30;99.90
35491;DHT22;21605;52.068;20.806;2022-11-04T10:20:48;12.50;99.90
35491;DHT22;21605;52.068;20.806;2022-11-04T10:23:40;12.70;99.90
35491;DHT22;21605;52.068;20.806;2022-11-04T10:26:13;12.90;99.90
35491;DHT22;21605;52.068;20.806;2022-11-04T10:28:41;13.10;99.90
35491;DHT22;21605;52.068;20.806;2022-11-04T10:31:11;13.10;99.50
35491;DHT22;21605;52.068;20.806;2022-11-04T10:33:39;13.20;99.90
35491;DHT22;21605;52.068;20.806;2022-11-04T10:36:07;13.60;99.90
35491;DHT22;21605;52.068;20.806;2022-11-04T10:41:02;14.30;98.00
35491;DHT22;21605;52.068;20.806;2022-11-04T10:43:34;14.80;99.90
35491;DHT22;21605;52.068;20.806;2022-11-04T10:46:02;15.30;99.10
35491;DHT22;21605;52.068;20.806;2022-11-04T10:48:32;15.90;99.80
35491;DHT22;21605;52.068;20.806;2022-11-04T10:50:59;16.20;97.60
35491;DHT22;21605;52.068;20.806;2022-11-04T10:53:26;16.50;98.70
35491;DHT22;21605;52.068;20.806;2022-11-04T10:58:24;16.80;96.50
35491;DHT22;21605;52.068;20.806;2022-11-04T11:00:51;16.70;93.00
35491;DHT22;21605;52.068;20.806;2022-11-04T11:03:27;17.20;99.30
35491;DHT22;21605;52.068;20.806;2022-11-04T11:05:53;17.10;92.70
35491;DHT22;21605;52.068;20.806;2022-11-04T11:08:33;17.50;95.20
35491;DHT22;21605;52.068;20.806;2022-11-04T11:11:01;17.50;97.20
35491;DHT22;21605;52.068;20.806;2022-11-04T11:13:27;17.90;96.70
35491;DHT22;21605;52.068;20.806;2022-11-04T11:18:30;17.30;93.20
35491;DHT22;21605;52.068;20.806;2022-11-04T11:21:14;17.30;92.70
35491;DHT22;21605;52.068;20.806;2022-11-04T11:23:48;17.50;96.30
35491;DHT22;21605;52.068;20.806;2022-11-04T11:26:16;17.30;96.30
35491;DHT22;21605;52.068;20.806;2022-11-04T11:28:47;17.30;92.60
35491;DHT22;21605;52.068;20.806;2022-11-04T11:31:13;17.30;94.80
35491;DHT22;21605;52.068;20.806;2022-11-04T11:33:45;17.20;92.50
35491;DHT22;21605;52.068;20.806;2022-11-04T11:36:16;17.10;93.60
35491;DHT22;21605;52.068;20.806;2022-11-04T11:38:52;16.80;91.30
35491;DHT22;21605;52.068;20.806;2022-11-04T11:41:19;16.40;91.60
35491;DHT22;21605;52.068;20.806;2022-11-04T11:43:49;16.10;94.40
35491;DHT22;21605;52.068;20.806;2022-11-04T11:46:25;16.50;91.40
35491;DHT22;21605;52.068;20.806;2022-11-04T11:48:53;16.60;94.00
35491;DHT22;21605;52.068;20.806;2022-11-04T11:51:23;16.80;94.20
35491;DHT22;21605;52.068;20.806;2022-11-04T11:56:35;16.40;92.40
35491;DHT22;21605;52.068;20.806;2022-11-04T12:04:17;16.30;94.90
35491;DHT22;21605;52.068;20.806;2022-11-04T12:06:56;16.40;93.20
35491;DHT22;21605;52.068;20.806;2022-11-04T12:27:31;15.20;92.20
35491;DHT22;21605;52.068;20.806;2022-11-04T12:45:36;14.40;94.40
35491;DHT22;21605;52.068;20.806;2022-11-04T12:47:50;14.40;95.30
35491;DHT22;21605;52.068;20.806;2022-11-04T12:53:04;14.40;94.80
35491;DHT22;21605;52.068;20.806;2022-11-04T12:58:33;14.20;95.40
35491;DHT22;21605;52.068;20.806;2022-11-04T13:01:05;14.10;95.00
35491;DHT22;21605;52.068;20.806;2022-11-04T13:06:24;13.80;95.10
35491;DHT22;21605;52.068;20.806;2022-11-04T13:09:02;13.70;94.90
35491;DHT22;21605;52.068;20.806;2022-11-04T13:11:38;13.70;95.00
35491;DHT22;21605;52.068;20.806;2022-11-04T13:16:38;13.60;95.40
35491;DHT22;21605;52.068;20.806;2022-11-04T13:19:19;13.60;96.00
35491;DHT22;21605;52.068;20.806;2022-11-04T13:21:45;13.50;95.30
35491;DHT22;21605;52.068;20.806;2022-11-04T13:24:16;13.50;95.30
35491;DHT22;21605;52.068;20.806;2022-11-04T13:26:45;13.50;95.40
35491;DHT22;21605;52.068;20.806;2022-11-04T13:29:15;13.40;95.40
35491;DHT22;21605;52.068;20.806;2022-11-04T13:31:52;13.30;95.50
35491;DHT22;21605;52.068;20.806;2022-11-04T13:44:26;13.10;95.50
35491;DHT22;21605;52.068;20.806;2022-11-04T13:46:53;13.10;95.60
35491;DHT22;21605;52.068;20.806;2022-11-04T13:49:26;13.10;95.60
35491;DHT22;21605;52.068;20.806;2022-11-04T13:52:00;13.10;95.60
35491;DHT22;21605;52.068;20.806;2022-11-04T13:54:36;13.00;95.70
35491;DHT22;21605;52.068;20.806;2022-11-04T13:59:29;12.80;95.50
35491;DHT22;21605;52.068;20.806;2022-11-04T14:04:53;12.80;96.00
35491;DHT22;21605;52.068;20.806;2022-11-04T14:07:23;12.70;95.90
35491;DHT22;21605;52.068;20.806;2022-11-04T14:10:30;12.60;95.90
35491;DHT22;21605;52.068;20.806;2022-11-04T14:12:51;12.60;95.90
35491;DHT22;21605;52.068;20.806;2022-11-04T14:15:22;12.60;96.10
35491;DHT22;21605;52.068;20.806;2022-11-04T14:18:02;12.60;96.20
35491;DHT22;21605;52.068;20.806;2022-11-04T14:20:31;12.50;96.10
35491;DHT22;21605;52.068;20.806;2022-11-04T14:22:57;12.50;96.00
35491;DHT22;21605;52.068;20.806;2022-11-04T14:25:25;12.40;96.10
35491;DHT22;21605;52.068;20.806;2022-11-04T14:30:42;12.40;96.70
35491;DHT22;21605;52.068;20.806;2022-11-04T14:35:52;12.30;96.30
35491;DHT22;21605;52.068;20.806;2022-11-04T14:38:31;12.20;96.30
35491;DHT22;21605;52.068;20.806;2022-11-04T14:41:13;12.20;96.20
35491;DHT22;21605;52.068;20.806;2022-11-04T14:43:40;12.20;96.40
35491;DHT22;21605;52.068;20.806;2022-11-04T14:46:06;12.10;96.30
35491;DHT22;21605;52.068;20.806;2022-11-04T14:48:32;12.10;96.50
35491;DHT22;21605;52.068;20.806;2022-11-04T14:50:58;12.10;96.40
35491;DHT22;21605;52.068;20.806;2022-11-04T14:53:33;12.10;96.60
35491;DHT22;21605;52.068;20.806;2022-11-04T14:56:05;12.00;96.40
35491;DHT22;21605;52.068;20.806;2022-11-04T14:58:30;12.10;97.20
35491;DHT22;21605;52.068;20.806;2022-11-04T15:03:22;12.10;96.50
35491;DHT22;21605;52.068;20.806;2022-11-04T15:05:52;12.00;96.50
35491;DHT22;21605;52.068;20.806;2022-11-04T15:10:57;12.00;96.80
35491;DHT22;21605;52.068;20.806;2022-11-04T15:13:23;11.90;96.70
35491;DHT22;21605;52.068;20.806;2022-11-04T15:15:49;11.90;96.50
35491;DHT22;21605;52.068;20.806;2022-11-04T15:18:16;11.90;97.00
35491;DHT22;21605;52.068;20.806;2022-11-04T15:20:53;11.90;96.70
35491;DHT22;21605;52.068;20.806;2022-11-04T15:23:41;11.90;96.70
35491;DHT22;21605;52.068;20.806;2022-11-04T15:26:05;11.90;97.00
35491;DHT22;21605;52.068;20.806;2022-11-04T15:28:34;11.80;97.00
35491;DHT22;21605;52.068;20.806;2022-11-04T15:33:27;11.80;96.90
35491;DHT22;21605;52.068;20.806;2022-11-04T15:35:54;11.80;97.20
35491;DHT22;21605;52.068;20.806;2022-11-04T15:38:20;11.80;96.90
35491;DHT22;21605;52.068;20.806;2022-11-04T15:40:46;11.70;96.60
35491;DHT22;21605;52.068;20.806;2022-11-04T15:43:13;11.70;96.80
35491;DHT22;21605;52.068;20.806;2022-11-04T15:50:55;11.70;96.90
35491;DHT22;21605;52.068;20.806;2022-11-04T15:53:21;11.60;96.80
35491;DHT22;21605;52.068;20.806;2022-11-04T15:55:47;11.70;97.20
35491;DHT22;21605;52.068;20.806;2022-11-04T15:58:13;11.70;97.10
35491;DHT22;21605;52.068;20.806;2022-11-04T16:00:40;11.60;96.90
35491;DHT22;21605;52.068;20.806;2022-11-04T16:03:05;11.70;97.00
35491;DHT22;21605;52.068;20.806;2022-11-04T16:05:41;11.60;96.90
35491;DHT22;21605;52.068;20.806;2022-11-04T16:08:15;11.60;97.10
35491;DHT22;21605;52.068;20.806;2022-11-04T16:10:42;11.60;97.00
35491;DHT22;21605;52.068;20.806;2022-11-04T16:15:45;11.50;96.90
35491;DHT22;21605;52.068;20.806;2022-11-04T16:20:48;11.50;97.20
35491;DHT22;21605;52.068;20.806;2022-11-04T16:23:21;11.60;96.90
35491;DHT22;21605;52.068;20.806;2022-11-04T16:25:54;11.60;97.20
35491;DHT22;21605;52.068;20.806;2022-11-04T16:28:20;11.50;97.00
35491;DHT22;21605;52.068;20.806;2022-11-04T16:31:00;11.50;97.30
35491;DHT22;21605;52.068;20.806;2022-11-04T16:33:25;11.50;97.20
35491;DHT22;21605;52.068;20.806;2022-11-04T16:35:51;11.50;97.00
35491;DHT22;21605;52.068;20.806;2022-11-04T16:38:17;11.40;97.20
35491;DHT22;21605;52.068;20.806;2022-11-04T16:40:43;11.40;97.30
35491;DHT22;21605;52.068;20.806;2022-11-04T16:43:10;11.40;97.40
35491;DHT22;21605;52.068;20.806;2022-11-04T16:45:36;11.40;97.40
35491;DHT22;21605;52.068;20.806;2022-11-04T16:48:04;11.40;97.40
35491;DHT22;21605;52.068;20.806;2022-11-04T16:50:30;11.40;97.50
35491;DHT22;21605;52.068;20.806;2022-11-04T16:52:58;11.40;97.60
35491;DHT22;21605;52.068;20.806;2022-11-04T16:55:25;11.40;97.60
35491;DHT22;21605;52.068;20.806;2022-11-04T16:58:01;11.40;97.60
35491;DHT22;21605;52.068;20.806;2022-11-04T17:00:27;11.30;97.70
35491;DHT22;21605;52.068;20.806;2022-11-04T17:02:53;11.30;97.70
35491;DHT22;21605;52.068;20.806;2022-11-04T17:05:19;11.30;97.70
35491;DHT22;21605;52.068;20.806;2022-11-04T17:07:45;11.40;97.80
35491;DHT22;21605;52.068;20.806;2022-11-04T17:10:11;11.30;97.80
35491;DHT22;21605;52.068;20.806;2022-11-04T17:12:38;11.30;97.80
35491;DHT22;21605;52.068;20.806;2022-11-04T17:15:03;11.30;97.80
35491;DHT22;21605;52.068;20.806;2022-11-04T17:17:29;11.30;98.00
35491;DHT22;21605;52.068;20.806;2022-11-04T17:19:54;11.30;98.00
35491;DHT22;21605;52.068;20.806;2022-11-04T17:22:20;11.30;98.10
35491;DHT22;21605;52.068;20.806;2022-11-04T17:24:46;11.30;97.90
35491;DHT22;21605;52.068;20.806;2022-11-04T17:27:11;11.20;98.00
35491;DHT22;21605;52.068;20.806;2022-11-04T17:29:37;11.40;98.10
35491;DHT22;21605;52.068;20.806;2022-11-04T17:32:02;11.20;98.10
35491;DHT22;21605;52.068;20.806;2022-11-04T17:34:28;11.20;98.20
35491;DHT22;21605;52.068;20.806;2022-11-04T17:36:53;11.20;98.20
35491;DHT22;21605;52.068;20.806;2022-11-04T17:39:19;11.10;98.20
35491;DHT22;21605;52.068;20.806;2022-11-04T17:41:44;11.10;98.20
35491;DHT22;21605;52.068;20.806;2022-11-04T17:44:29;11.10;98.10
35491;DHT22;21605;52.068;20.806;2022-11-04T17:46:54;11.10;98.20
35491;DHT22;21605;52.068;20.806;2022-11-04T17:49:22;11.10;98.40
35491;DHT22;21605;52.068;20.806;2022-11-04T17:51:49;11.10;98.50
35491;DHT22;21605;52.068;20.806;2022-11-04T17:54:15;11.10;98.40
35491;DHT22;21605;52.068;20.806;2022-11-04T17:56:41;11.10;98.50
35491;DHT22;21605;52.068;20.806;2022-11-04T17:59:07;11.00;98.50
35491;DHT22;21605;52.068;20.806;2022-11-04T18:01:33;11.10;98.50
35491;DHT22;21605;52.068;20.806;2022-11-04T18:03:59;11.10;98.40
35491;DHT22;21605;52.068;20.806;2022-11-04T18:06:25;11.10;98.50
35491;DHT22;21605;52.068;20.806;2022-11-04T18:08:53;11.10;98.60
35491;DHT22;21605;52.068;20.806;2022-11-04T18:11:20;11.10;98.60
35491;DHT22;21605;52.068;20.806;2022-11-04T18:14:04;11.00;98.70
35491;DHT22;21605;52.068;20.806;2022-11-04T18:16:30;11.10;98.80
35491;DHT22;21605;52.068;20.806;2022-11-04T18:18:56;11.10;98.60
35491;DHT22;21605;52.068;20.806;2022-11-04T18:21:21;11.10;98.70
35491;DHT22;21605;52.068;20.806;2022-11-04T18:23:47;11.00;98.70
35491;DHT22;21605;52.068;20.806;2022-11-04T18:26:12;11.00;98.90